createdAt,value
2023-09-12T00:01:49.431Z,51.63
2023-09-12T00:12:10.891Z,51.61
2023-09-12T00:22:32.350Z,51.18
2023-09-12T00:32:54.074Z,51.74
2023-09-12T00:43:15.454Z,51.67
2023-09-12T00:53:36.824Z,51.75
2023-09-12T01:03:58.492Z,51.06
2023-09-12T01:14:20.079Z,51.50
2023-09-12T01:25:23.326Z,51.71
2023-09-12T01:35:44.928Z,51.93
2023-09-12T01:46:05.862Z,51.60
2023-09-12T01:56:27.380Z,51.49
2023-09-12T02:06:49.394Z,51.97
2023-09-12T02:17:11.294Z,52.27
2023-09-12T02:27:32.408Z,51.55
2023-09-12T02:37:53.996Z,51.51
2023-09-12T02:48:15.746Z,51.87
2023-09-12T02:58:37.301Z,52.03
2023-09-12T03:08:58.575Z,51.03
2023-09-12T03:19:19.907Z,51.74
2023-09-12T03:29:41.517Z,51.55
2023-09-12T03:40:03.329Z,51.94
2023-09-12T03:50:25.018Z,52.37
2023-09-12T04:00:46.618Z,51.70
2023-09-12T04:11:07.932Z,51.75
2023-09-12T04:21:30.477Z,51.77
2023-09-12T04:31:53.961Z,51.40
2023-09-12T04:42:15.673Z,51.71
2023-09-12T04:52:37.295Z,51.51
2023-09-12T05:02:58.889Z,51.29
2023-09-12T05:13:20.799Z,51.68
2023-09-12T05:23:42.207Z,51.62
2023-09-12T05:34:03.812Z,52.14
2023-09-12T05:44:25.733Z,52.17
2023-09-12T05:54:47.610Z,51.97
2023-09-12T06:05:09.872Z,51.89
2023-09-12T06:15:31.520Z,52.15
2023-09-12T06:25:53.186Z,52.34
2023-09-12T06:36:14.327Z,52.56
2023-09-12T06:46:39.306Z,52.51
2023-09-12T06:57:00.782Z,52.23
2023-09-12T07:07:22.712Z,51.86
2023-09-12T07:17:44.477Z,52.03
2023-09-12T07:28:06.213Z,51.58
2023-09-12T07:38:28.109Z,51.18
2023-09-12T07:48:49.468Z,50.90
2023-09-12T07:59:12.312Z,50.84
2023-09-12T08:10:00.514Z,50.81
2023-09-12T08:20:22.153Z,50.98
2023-09-12T08:30:46.605Z,50.99
2023-09-12T08:41:08.663Z,50.74
2023-09-12T08:51:30.194Z,50.64
2023-09-12T09:01:53.601Z,51.02
2023-09-12T09:12:15.046Z,50.94
2023-09-12T09:22:36.417Z,51.02
2023-09-12T09:32:58.084Z,50.76
2023-09-12T09:43:22.842Z,50.68
2023-09-12T09:53:45.185Z,50.47
2023-09-12T10:04:06.920Z,50.43
2023-09-12T10:14:28.681Z,49.97
2023-09-12T10:24:51.194Z,49.35
2023-09-12T10:35:12.536Z,49.04
2023-09-12T10:45:34.540Z,48.78
2023-09-12T10:56:01.418Z,48.49
2023-09-12T11:06:25.414Z,48.15
2023-09-12T11:17:08.930Z,47.84
2023-09-12T11:27:45.641Z,47.36
2023-09-12T11:38:11.594Z,47.01
2023-09-12T11:48:33.797Z,47.02
2023-09-12T11:58:56.577Z,46.83
2023-09-12T12:09:20.394Z,46.96
2023-09-12T12:19:47.041Z,46.71
2023-09-12T12:30:11.021Z,46.59
2023-09-12T12:40:42.302Z,46.52
2023-09-12T12:51:24.130Z,46.40
2023-09-12T13:01:45.938Z,46.32
2023-09-12T13:12:08.137Z,46.06
2023-09-12T13:22:29.710Z,46.11
2023-09-12T13:32:51.337Z,46.05
2023-09-12T13:43:13.289Z,45.73
2023-09-12T13:53:34.989Z,45.94
2023-09-12T14:03:57.012Z,45.44
2023-09-12T14:14:19.303Z,45.70
2023-09-12T14:24:40.972Z,45.63
2023-09-12T14:35:02.636Z,45.93
2023-09-12T14:45:26.834Z,46.15
2023-09-12T14:55:48.325Z,45.98
2023-09-12T15:06:09.459Z,46.33
2023-09-12T15:16:36.161Z,46.39
2023-09-12T15:26:57.881Z,46.49
2023-09-12T15:47:43.457Z,46.65
2023-09-12T15:58:05.274Z,46.93
2023-09-12T16:08:28.283Z,47.15
2023-09-12T16:18:50.016Z,47.23
2023-09-12T16:29:11.381Z,47.39
2023-09-12T16:39:33.184Z,47.13
2023-09-12T16:49:55.142Z,47.20
2023-09-12T17:00:17.376Z,47.31
2023-09-12T17:10:39.178Z,47.19
2023-09-12T17:21:01.996Z,47.17
2023-09-12T17:31:25.230Z,47.04
2023-09-12T17:41:46.739Z,46.96
2023-09-12T17:52:08.237Z,46.85
2023-09-12T18:02:29.719Z,46.67
2023-09-12T18:12:51.160Z,46.40
2023-09-12T18:23:12.354Z,46.68
2023-09-12T18:33:35.632Z,46.53
2023-09-12T18:43:56.833Z,46.67
2023-09-12T18:54:23.862Z,46.70
2023-09-12T19:04:45.307Z,46.59
2023-09-12T19:15:07.520Z,46.80
2023-09-12T19:25:29.162Z,46.92
2023-09-12T19:35:50.720Z,46.76
2023-09-12T19:46:12.296Z,46.75
2023-09-12T19:56:34.375Z,46.88
2023-09-12T20:06:56.602Z,47.00
2023-09-12T20:17:17.881Z,46.88
2023-09-12T20:27:39.303Z,46.76
2023-09-12T20:38:01.078Z,47.21
2023-09-12T20:48:22.489Z,47.47
2023-09-12T20:58:43.976Z,47.63
2023-09-12T21:09:05.411Z,47.62
2023-09-12T21:19:27.073Z,47.94
2023-09-12T21:29:49.026Z,48.00
2023-09-12T21:40:12.201Z,48.19
2023-09-12T21:50:37.662Z,48.29
2023-09-12T22:00:59.481Z,48.54
2023-09-12T22:11:20.743Z,48.55
2023-09-12T22:21:42.220Z,48.78
2023-09-12T22:32:04.343Z,48.98
2023-09-12T22:42:26.051Z,49.29
2023-09-12T22:52:47.430Z,49.35
2023-09-12T23:03:09.997Z,49.54
2023-09-12T23:13:32.720Z,49.64
2023-09-12T23:23:54.195Z,49.61
2023-09-12T23:34:15.549Z,49.59
2023-09-12T23:44:37.313Z,49.74
2023-09-12T23:54:59.284Z,49.95
